Time;durP1;ratioP1;P1;durP2;ratioP2;P2;SDS_P1;SDS_P2;PMS_P1;PMS_P2;Temp;Humidity;BMP_temperature;BMP_pressure;BME280_temperature;BME280_humidity;BME280_pressure;Samples;Min_cycle;Max_cycle;Signal;HPM_P1;HPM_P2
2022/03/10 00:04:15;;;;;;;15.50;9.07;;;0.30;95.30;;;;;;9763419;28;20061;-62
2022/03/10 00:09:17;;;;;;;11.85;8.95;;;0.20;95.10;;;;;;9784745;28;20423;-62
2022/03/10 00:14:18;;;;;;;12.55;9.30;;;0.30;96.60;;;;;;9771396;28;20041;-61
2022/03/10 00:19:20;;;;;;;20.58;10.18;;;0.20;95.80;;;;;;9790341;28;20606;-61
2022/03/10 00:24:22;;;;;;;8.93;3.35;;;0.20;95.90;;;;;;10054983;28;20053;-62
2022/03/10 00:29:24;;;;;;;8.57;3.63;;;0.10;97.40;;;;;;10429577;28;20075;-61
2022/03/10 00:34:26;;;;;;;12.13;4.70;;;0.10;97.80;;;;;;10424199;28;20061;-61
2022/03/10 00:39:28;;;;;;;11.52;4.40;;;0.10;97.60;;;;;;10426807;28;20072;-62
2022/03/10 00:44:30;;;;;;;12.70;3.30;;;0.00;97.60;;;;;;10426141;28;20131;-62
2022/03/10 00:49:31;;;;;;;11.48;3.60;;;-0.10;96.30;;;;;;10427688;28;20118;-61
2022/03/10 00:54:33;;;;;;;7.20;3.33;;;-0.10;95.70;;;;;;10426525;28;20466;-61
2022/03/10 00:59:35;;;;;;;9.90;3.53;;;-0.10;95.90;;;;;;10428951;28;20110;-62
2022/03/10 01:04:36;;;;;;;10.02;4.15;;;-0.10;96.30;;;;;;10424055;28;20152;-62
2022/03/10 01:09:38;;;;;;;8.57;3.55;;;-0.20;97.50;;;;;;10426487;28;20084;-62
2022/03/10 01:14:40;;;;;;;12.55;3.90;;;-0.20;98.20;;;;;;10427031;28;20091;-62
2022/03/10 01:19:42;;;;;;;13.40;4.22;;;-0.20;99.20;;;;;;10425466;28;20576;-62
2022/03/10 01:24:44;;;;;;;10.32;4.10;;;-0.30;98.70;;;;;;10427004;28;20049;-62
2022/03/10 01:29:46;;;;;;;15.38;3.22;;;-0.30;99.90;;;;;;10428079;28;20053;-62
2022/03/10 01:34:47;;;;;;;9.20;2.70;;;-0.40;99.90;;;;;;10421880;28;20546;-62
2022/03/10 01:39:49;;;;;;;9.38;3.90;;;-0.50;99.90;;;;;;10420740;28;20110;-62
2022/03/10 01:44:54;;;;;;;16.77;3.85;;;-0.50;98.80;;;;;;10424622;28;20126;-62
2022/03/10 01:49:56;;;;;;;10.65;4.00;;;-0.50;99.90;;;;;;10419242;28;20080;-62
2022/03/10 01:54:58;;;;;;;7.60;2.78;;;-0.50;99.90;;;;;;10424085;28;20068;-62
2022/03/10 02:00:00;;;;;;;10.25;2.95;;;-0.40;99.90;;;;;;10420832;28;20150;-62
2022/03/10 02:05:02;;;;;;;9.07;3.25;;;-0.60;99.90;;;;;;10416056;28;20056;-62
2022/03/10 02:10:19;;;;;;;19.73;3.10;;;-0.70;99.90;;;;;;10417943;28;20045;-62
2022/03/10 02:20:43;;;;;;;14.63;4.85;;;-0.70;99.90;;;;;;10422329;28;20044;-62
2022/03/10 02:25:46;;;;;;;10.10;4.22;;;-0.70;99.90;;;;;;10406947;28;20457;-62
2022/03/10 02:30:50;;;;;;;14.75;5.03;;;-0.60;98.40;;;;;;10420221;28;20471;-62
2022/03/10 02:35:52;;;;;;;13.02;5.45;;;-0.60;97.50;;;;;;10424520;28;20482;-62
2022/03/10 02:40:54;;;;;;;12.23;5.05;;;-0.50;97.00;;;;;;10424605;28;20040;-63
2022/03/10 02:45:56;;;;;;;13.55;3.65;;;-0.50;95.80;;;;;;10421877;28;20137;-62
2022/03/10 02:50:57;;;;;;;10.43;4.10;;;-0.50;95.60;;;;;;10424505;28;20119;-62
2022/03/10 02:55:59;;;;;;;9.80;4.15;;;-0.50;95.60;;;;;;10422898;28;20466;-63
2022/03/10 03:01:01;;;;;;;10.65;3.63;;;-0.50;96.40;;;;;;10419613;28;20103;-63
2022/03/10 03:06:02;;;;;;;14.15;3.70;;;-0.60;97.00;;;;;;10420515;28;20067;-62
2022/03/10 03:11:04;;;;;;;8.82;3.60;;;-0.60;99.10;;;;;;10423629;28;20073;-62
2022/03/10 03:16:06;;;;;;;8.85;3.50;;;-0.60;99.90;;;;;;10420244;28;20045;-63
2022/03/10 03:21:08;;;;;;;11.75;3.47;;;-0.60;99.90;;;;;;10422979;28;20057;-62
2022/03/10 03:26:10;;;;;;;11.65;4.30;;;-0.70;99.70;;;;;;10421954;28;20073;-63
2022/03/10 03:31:12;;;;;;;8.35;2.95;;;-0.70;99.80;;;;;;10421013;28;20099;-62
2022/03/10 03:36:13;;;;;;;15.63;3.63;;;-0.80;99.90;;;;;;10420634;28;20045;-62
2022/03/10 03:41:15;;;;;;;10.50;3.70;;;-0.80;99.90;;;;;;10423111;28;20085;-62
2022/03/10 03:46:17;;;;;;;13.00;3.92;;;-0.90;99.90;;;;;;10428965;28;20080;-62
2022/03/10 03:51:19;;;;;;;14.10;4.55;;;-0.80;99.90;;;;;;10425011;28;20615;-62
2022/03/10 03:56:20;;;;;;;9.00;4.18;;;-1.00;99.90;;;;;;10429994;28;20041;-62
2022/03/10 04:01:23;;;;;;;12.15;3.10;;;-1.00;99.90;;;;;;10425637;28;20041;-62
2022/03/10 04:06:26;;;;;;;12.23;3.97;;;-1.10;99.90;;;;;;10429666;28;20550;-63
2022/03/10 04:11:29;;;;;;;10.48;3.95;;;-1.10;99.90;;;;;;10414853;28;20572;-62
2022/03/10 04:16:30;;;;;;;9.27;3.97;;;-1.10;99.90;;;;;;10427037;28;20048;-63
2022/03/10 04:21:33;;;;;;;10.38;4.13;;;-1.20;99.90;;;;;;10427028;28;20140;-62
2022/03/10 04:26:34;;;;;;;10.45;3.67;;;-1.20;99.90;;;;;;10425939;28;20472;-63
2022/03/10 04:31:36;;;;;;;10.85;4.57;;;-1.20;99.90;;;;;;10426621;28;20040;-62
2022/03/10 04:36:38;;;;;;;11.60;4.60;;;-1.20;99.90;;;;;;10410387;28;20163;-62
2022/03/10 04:41:39;;;;;;;12.07;4.03;;;-1.20;99.90;;;;;;10428277;28;20049;-62
2022/03/10 04:46:41;;;;;;;9.88;3.85;;;-1.30;99.90;;;;;;10423882;28;20079;-63
2022/03/10 04:51:43;;;;;;;8.35;3.13;;;-1.30;99.90;;;;;;10428811;28;20087;-63
2022/03/10 04:56:44;;;;;;;19.00;4.28;;;-1.30;99.90;;;;;;10425536;28;20415;-62
2022/03/10 05:01:46;;;;;;;11.82;4.82;;;-1.40;99.90;;;;;;10422244;28;20073;-62
2022/03/10 05:06:48;;;;;;;7.18;3.75;;;-1.40;99.90;;;;;;10419302;28;20098;-63
2022/03/10 05:11:49;;;;;;;9.20;4.20;;;-1.50;99.90;;;;;;10426870;28;20450;-62
2022/03/10 05:16:51;;;;;;;15.60;4.00;;;-1.50;99.90;;;;;;10426193;28;20123;-62
2022/03/10 05:21:53;;;;;;;14.30;4.85;;;-1.50;99.90;;;;;;10425300;28;20529;-62
2022/03/10 05:26:57;;;;;;;10.52;4.25;;;-1.50;99.90;;;;;;10420045;28;20052;-62
2022/03/10 05:31:58;;;;;;;12.88;3.90;;;-1.60;99.90;;;;;;10425705;28;20053;-61
2022/03/10 05:37:00;;;;;;;10.82;4.15;;;-1.60;99.90;;;;;;10405419;28;20041;-65
2022/03/10 05:42:02;;;;;;;9.95;4.28;;;-1.60;99.90;;;;;;10421026;28;20077;-65
2022/03/10 05:47:06;;;;;;;10.40;3.83;;;-1.60;99.90;;;;;;10424688;28;20636;-64
2022/03/10 05:52:07;;;;;;;10.80;4.00;;;-1.60;99.90;;;;;;10424452;28;20076;-65
2022/03/10 05:57:09;;;;;;;13.73;4.18;;;-1.70;99.90;;;;;;10423983;28;20554;-65
2022/03/10 06:02:11;;;;;;;11.18;4.43;;;-1.60;99.90;;;;;;10423688;28;20076;-65
2022/03/10 06:07:12;;;;;;;9.57;3.58;;;-1.60;99.90;;;;;;10424906;28;20069;-65
2022/03/10 06:12:23;;;;;;;20.17;6.43;;;-1.60;99.90;;;;;;10423208;28;20426;-65
2022/03/10 06:17:26;;;;;;;24.60;5.20;;;-1.60;99.90;;;;;;10413240;28;20079;-65
2022/03/10 06:22:29;;;;;;;17.38;4.78;;;-1.50;99.90;;;;;;10423055;28;20041;-65
2022/03/10 06:27:31;;;;;;;9.82;4.53;;;-1.40;99.90;;;;;;10421859;28;20385;-65
2022/03/10 06:32:33;;;;;;;19.92;5.95;;;-1.30;99.90;;;;;;10416709;28;20403;-65
2022/03/10 06:37:35;;;;;;;14.57;4.65;;;-1.30;99.90;;;;;;10422907;28;20076;-64
2022/03/10 06:42:36;;;;;;;14.80;4.95;;;-1.20;99.90;;;;;;10419443;28;20082;-64
2022/03/10 06:47:38;;;;;;;15.90;5.53;;;-1.10;99.90;;;;;;10414891;28;20049;-64
2022/03/10 06:52:40;;;;;;;18.95;5.68;;;-1.00;99.90;;;;;;10419675;28;20065;-63
2022/03/10 06:57:42;;;;;;;17.63;5.95;;;-0.90;99.90;;;;;;10418038;28;20044;-60
2022/03/10 07:02:44;;;;;;;12.75;5.32;;;-0.70;99.90;;;;;;10419701;28;20052;-62
2022/03/10 07:07:46;;;;;;;25.35;5.93;;;-0.50;99.90;;;;;;10418660;28;20530;-63
2022/03/10 07:12:47;;;;;;;14.98;5.72;;;-0.30;99.90;;;;;;10421448;28;20052;-62
2022/03/10 07:17:49;;;;;;;13.85;5.32;;;-0.20;99.90;;;;;;10426044;28;20048;-63
2022/03/10 07:22:51;;;;;;;20.10;6.30;;;0.00;99.90;;;;;;10429787;28;20052;-64
2022/03/10 07:27:53;;;;;;;12.55;5.38;;;0.20;99.90;;;;;;10407862;28;20082;-64
2022/03/10 07:32:54;;;;;;;11.52;4.57;;;0.40;99.90;;;;;;10426864;28;20072;-64
2022/03/10 07:37:59;;;;;;;10.75;5.22;;;0.60;99.40;;;;;;10425957;28;20080;-64
2022/03/10 07:43:02;;;;;;;14.85;5.47;;;0.80;96.90;;;;;;10428471;28;20083;-64
2022/03/10 07:48:04;;;;;;;14.68;5.38;;;0.90;97.00;;;;;;10427629;28;20107;-64
2022/03/10 07:53:06;;;;;;;12.52;5.20;;;1.10;97.90;;;;;;10411598;28;20106;-63
2022/03/10 07:58:08;;;;;;;10.95;5.57;;;1.30;98.20;;;;;;10427765;28;20063;-63
2022/03/10 08:03:10;;;;;;;16.17;4.53;;;1.50;97.80;;;;;;10427288;28;20403;-63
2022/03/10 08:08:13;;;;;;;20.25;5.20;;;1.70;97.20;;;;;;10426692;28;20041;-63
2022/03/10 08:13:15;;;;;;;10.40;4.85;;;1.90;95.80;;;;;;10429191;28;20053;-63
2022/03/10 08:18:17;;;;;;;12.82;4.82;;;2.10;94.80;;;;;;10426517;28;20052;-63
2022/03/10 08:23:19;;;;;;;12.93;5.63;;;2.40;93.70;;;;;;10426809;28;20110;-64
2022/03/10 08:28:20;;;;;;;13.77;5.53;;;2.60;91.20;;;;;;10423364;28;20156;-63
2022/03/10 08:33:22;;;;;;;14.27;5.68;;;2.80;90.10;;;;;;10405984;28;20073;-63
2022/03/10 08:38:25;;;;;;;10.73;5.32;;;3.10;89.80;;;;;;10423392;28;20103;-63
2022/03/10 08:43:29;;;;;;;10.23;4.68;;;3.50;90.60;;;;;;10400664;28;20046;-63
2022/03/10 08:48:32;;;;;;;16.40;5.43;;;3.70;88.00;;;;;;10426977;28;20056;-63
2022/03/10 08:53:35;;;;;;;9.85;4.32;;;4.00;90.60;;;;;;10426325;28;20053;-63
2022/03/10 08:58:37;;;;;;;14.18;4.18;;;4.30;89.00;;;;;;10425572;28;20057;-63
2022/03/10 09:03:39;;;;;;;12.32;5.00;;;4.60;90.20;;;;;;10427453;28;20076;-63
2022/03/10 09:08:42;;;;;;;10.90;4.22;;;;;;;;;;10425100;28;20551;-62
2022/03/10 09:13:48;;;;;;;9.20;4.00;;;;;;;;;;10425447;28;20048;-63
2022/03/10 09:18:50;;;;;;;9.95;4.72;;;;;;;;;;10423904;28;20063;-63
2022/03/10 09:23:52;;;;;;;9.23;4.00;;;5.60;81.70;;;;;;10423832;28;20076;-64
2022/03/10 09:28:54;;;;;;;16.05;5.38;;;5.80;78.70;;;;;;10422721;28;20103;-64
2022/03/10 09:33:56;;;;;;;13.40;4.90;;;6.00;82.20;;;;;;10424845;28;20111;-63
2022/03/10 09:38:57;;;;;;;11.93;4.40;;;6.10;83.80;;;;;;10407953;28;20068;-64
2022/03/10 09:44:00;;;;;;;11.85;5.57;;;6.30;82.10;;;;;;10423601;28;20503;-64
2022/03/10 09:49:02;;;;;;;14.43;5.20;;;6.40;86.10;;;;;;10425258;28;20141;-64
2022/03/10 09:54:03;;;;;;;11.95;5.28;;;6.60;86.70;;;;;;10422465;28;20095;-63
2022/03/10 09:59:06;;;;;;;22.10;6.00;;;6.80;86.90;;;;;;10422623;28;20053;-63
2022/03/10 10:04:08;;;;;;;11.02;5.25;;;6.90;86.30;;;;;;10421753;28;20099;-63
2022/03/10 10:09:10;;;;;;;11.50;6.00;;;7.00;89.70;;;;;;10424397;28;20559;-63
2022/03/10 10:14:12;;;;;;;11.00;5.22;;;;;;;;;;10424396;28;20053;-64
2022/03/10 10:19:17;;;;;;;11.25;4.70;;;;;;;;;;10424820;28;20040;-63
2022/03/10 10:24:21;;;;;;;11.00;5.18;;;;;;;;;;10420957;28;20049;-63
2022/03/10 10:29:29;;;;;;;14.90;6.47;;;;;;;;;;10422235;28;20052;-63
2022/03/10 10:34:31;;;;;;;13.95;6.00;;;;;;;;;;10423561;28;20122;-63
2022/03/10 10:39:35;;;;;;;16.80;6.03;;;;;;;;;;10423671;28;20056;-63
2022/03/10 10:44:37;;;;;;;9.18;5.15;;;;;;;;;;10419038;28;20558;-63
2022/03/10 10:49:39;;;;;;;10.88;5.00;;;;;;;;;;10421853;28;20048;-62
2022/03/10 10:54:41;;;;;;;14.63;6.32;;;;;;;;;;10416439;28;20037;-66
2022/03/10 10:59:43;;;;;;;14.32;5.35;;;;;;;;;;10422609;28;20052;-65
2022/03/10 11:04:47;;;;;;;12.57;5.22;;;;;;;;;;10419447;28;20061;-65
2022/03/10 11:09:52;;;;;;;13.43;5.97;;;9.60;57.50;;;;;;10419009;28;20106;-65
2022/03/10 11:14:55;;;;;;;9.43;4.68;;;9.90;55.70;;;;;;10422315;28;20049;-65
2022/03/10 11:20:00;;;;;;;10.27;5.18;;;10.20;55.70;;;;;;10424478;28;20136;-65
2022/03/10 11:25:33;;;;;;;10.27;5.05;;;10.40;53.60;;;;;;10420975;28;20053;-65
2022/03/10 11:30:35;;;;;;;8.35;4.00;;;10.60;53.10;;;;;;10419851;28;20045;-67
2022/03/10 11:35:42;;;;;;;8.48;3.88;;;11.00;50.90;;;;;;10421310;28;20133;-65
2022/03/10 11:40:51;;;;;;;11.13;4.45;;;11.30;50.20;;;;;;10417892;28;20061;-65
2022/03/10 11:46:13;;;;;;;9.73;4.43;;;11.70;48.40;;;;;;10419071;28;20049;-65
2022/03/10 11:51:18;;;;;;;9.88;5.20;;;12.50;47.80;;;;;;10398930;28;20068;-65
2022/03/10 11:56:57;;;;;;;7.15;4.00;;;13.90;44.40;;;;;;10422278;28;20045;-66
2022/03/10 12:02:00;;;;;;;8.02;4.82;;;15.60;41.90;;;;;;10408340;28;20064;-66
2022/03/10 12:07:03;;;;;;;7.72;4.90;;;17.50;39.10;;;;;;10426227;28;20057;-66
2022/03/10 12:12:15;;;;;;;9.38;4.85;;;19.20;36.40;;;;;;10410381;28;20618;-66
2022/03/10 12:17:44;;;;;;;10.07;4.32;;;20.10;37.10;;;;;;10419366;28;20057;-66
2022/03/10 12:23:06;;;;;;;7.45;3.92;;;22.30;33.00;;;;;;10426355;28;20091;-64
2022/03/10 12:28:10;;;;;;;11.15;3.63;;;23.30;30.00;;;;;;10403964;28;20057;-63
2022/03/10 12:33:11;;;;;;;7.22;3.80;;;23.80;29.40;;;;;;10426534;28;20045;-64
2022/03/10 12:38:13;;;;;;;4.82;3.33;;;24.30;30.00;;;;;;10404376;28;20110;-64
2022/03/10 12:43:24;;;;;;;5.63;3.13;;;25.00;29.20;;;;;;10425315;28;20045;-64
2022/03/10 12:49:03;;;;;;;7.00;3.78;;;25.80;28.10;;;;;;10424462;28;20056;-64
2022/03/10 12:54:07;;;;;;;6.65;2.78;;;26.40;27.20;;;;;;10425570;28;20106;-64
2022/03/10 12:59:09;;;;;;;5.82;2.83;;;26.50;27.30;;;;;;10422276;28;20071;-64
2022/03/10 13:04:15;;;;;;;3.90;2.70;;;26.40;27.30;;;;;;10426245;28;20044;-64
2022/03/10 13:09:23;;;;;;;5.72;3.05;;;26.80;26.50;;;;;;10427997;28;20045;-66
2022/03/10 13:14:24;;;;;;;4.88;2.38;;;27.00;27.30;;;;;;10421080;28;20126;-63
2022/03/10 13:19:32;;;;;;;5.55;3.15;;;27.20;26.20;;;;;;10417721;28;20099;-63
2022/03/10 13:24:42;;;;;;;5.80;3.30;;;26.50;26.20;;;;;;10425262;28;20087;-62
2022/03/10 13:29:47;;;;;;;6.55;3.22;;;26.50;26.90;;;;;;10424370;28;20110;-63
2022/03/10 13:34:53;;;;;;;4.60;3.17;;;26.30;26.20;;;;;;10423202;28;20045;-63
2022/03/10 13:39:55;;;;;;;4.20;2.92;;;26.40;26.60;;;;;;10424933;28;20057;-63
2022/03/10 13:45:08;;;;;;;5.75;2.80;;;26.60;26.50;;;;;;10404175;28;20114;-62
2022/03/10 13:50:10;;;;;;;4.38;2.38;;;26.90;26.10;;;;;;10415837;28;20134;-62
2022/03/10 13:55:12;;;;;;;7.20;3.20;;;26.40;25.40;;;;;;10417906;28;20072;-62
2022/03/10 14:00:14;;;;;;;4.85;2.25;;;26.10;25.30;;;;;;10421075;28;20111;-63
2022/03/10 14:05:16;;;;;;;6.20;2.70;;;26.10;26.20;;;;;;10418417;28;20141;-61
2022/03/10 14:10:29;;;;;;;13.38;2.85;;;26.80;26.20;;;;;;10421208;28;20076;-62
2022/03/10 14:15:36;;;;;;;4.30;2.00;;;26.50;25.80;;;;;;10421913;28;20056;-62
2022/03/10 14:20:46;;;;;;;3.92;2.00;;;26.30;25.90;;;;;;10421151;28;20053;-61
2022/03/10 14:25:53;;;;;;;3.88;1.33;;;25.60;26.30;;;;;;10421366;28;20072;-61
2022/03/10 14:30:54;;;;;;;2.45;1.50;;;24.90;26.00;;;;;;10421958;28;20161;-61
2022/03/10 14:35:57;;;;;;;4.55;1.75;;;24.00;27.00;;;;;;10420352;28;20060;-61
2022/03/10 14:40:58;;;;;;;4.50;2.15;;;23.40;26.60;;;;;;10422727;28;20041;-62
2022/03/10 14:46:01;;;;;;;3.70;1.63;;;23.20;26.80;;;;;;10418421;28;20065;-65
2022/03/10 14:51:03;;;;;;;3.38;1.75;;;23.20;27.50;;;;;;10423562;28;20049;-66
2022/03/10 14:56:05;;;;;;;3.10;1.90;;;22.90;27.00;;;;;;10422788;28;20048;-64
2022/03/10 15:01:07;;;;;;;4.88;2.38;;;21.80;28.40;;;;;;10403115;28;20075;-65
2022/03/10 15:06:10;;;;;;;4.60;1.98;;;22.20;28.70;;;;;;10379296;28;20041;-66
2022/03/10 15:11:13;;;;;;;7.72;2.53;;;21.30;28.30;;;;;;10374788;28;20562;-67
2022/03/10 15:16:19;;;;;;;4.10;2.08;;;21.40;29.40;;;;;;10379225;28;20080;-65
2022/03/10 15:21:20;;;;;;;4.10;1.67;;;20.80;30.20;;;;;;10378541;28;20133;-65
2022/03/10 15:31:34;;;;;;;8.40;2.67;;;20.80;30.00;;;;;;10336731;28;20132;-64
2022/03/10 15:36:35;;;;;;;6.32;2.15;;;20.60;30.50;;;;;;10337968;28;20124;-63
2022/03/10 15:41:41;;;;;;;3.95;1.85;;;19.90;30.20;;;;;;10347471;28;20069;-63
2022/03/10 15:46:42;;;;;;;4.25;2.22;;;19.90;31.50;;;;;;10342912;28;20471;-63
2022/03/10 15:51:45;;;;;;;4.47;2.22;;;19.30;32.30;;;;;;10340289;28;20762;-63
2022/03/10 15:56:48;;;;;;;9.02;3.00;;;19.10;31.90;;;;;;10343974;28;20084;-63
2022/03/10 16:01:50;;;;;;;5.07;2.35;;;19.00;32.70;;;;;;10344915;28;20053;-63
2022/03/10 16:06:52;;;;;;;5.63;2.10;;;18.30;33.20;;;;;;10341472;28;20406;-63
2022/03/10 16:11:54;;;;;;;3.90;1.83;;;18.40;33.10;;;;;;10343123;28;20111;-63
2022/03/10 16:16:56;;;;;;;4.00;2.20;;;18.20;34.00;;;;;;10341927;28;20155;-63
2022/03/10 16:22:00;;;;;;;3.92;2.15;;;17.80;34.50;;;;;;10345096;28;20057;-63
2022/03/10 16:27:02;;;;;;;6.40;2.55;;;17.20;35.70;;;;;;10340955;28;20089;-63
2022/03/10 16:32:04;;;;;;;11.52;2.40;;;16.70;35.80;;;;;;10344028;28;20080;-63
2022/03/10 16:37:05;;;;;;;6.65;3.03;;;16.30;40.30;;;;;;10345726;28;20057;-63
2022/03/10 16:42:08;;;;;;;7.40;3.03;;;15.80;38.30;;;;;;10340776;28;20516;-63
2022/03/10 16:47:12;;;;;;;6.60;3.28;;;15.50;40.90;;;;;;10344310;28;20159;-63
2022/03/10 16:52:14;;;;;;;6.90;2.70;;;15.20;41.50;;;;;;10344301;28;20053;-63
2022/03/10 16:57:15;;;;;;;10.15;2.70;;;14.80;41.70;;;;;;10344282;28;20123;-63
2022/03/10 17:02:17;;;;;;;9.35;3.78;;;14.40;42.60;;;;;;10342981;28;20108;-62
2022/03/10 17:07:19;;;;;;;9.93;4.32;;;14.10;44.30;;;;;;10345232;28;20050;-63
2022/03/10 17:12:20;;;;;;;16.25;3.42;;;13.80;44.80;;;;;;10343414;28;20092;-63
2022/03/10 17:17:22;;;;;;;13.93;3.15;;;13.40;45.50;;;;;;10344731;28;20119;-63
2022/03/10 17:22:24;;;;;;;22.20;4.03;;;13.10;46.10;;;;;;10322364;28;20054;-63
2022/03/10 17:27:27;;;;;;;9.25;4.00;;;12.70;46.40;;;;;;10341188;28;20108;-63
2022/03/10 17:32:47;;;;;;;8.07;3.10;;;12.40;47.60;;;;;;10343584;28;20045;-62
2022/03/10 17:37:49;;;;;;;11.45;3.83;;;12.00;48.30;;;;;;10348460;28;20500;-62
2022/03/10 17:42:50;;;;;;;21.17;3.35;;;11.60;49.30;;;;;;10338879;28;20077;-62
2022/03/10 17:47:52;;;;;;;14.00;3.90;;;11.30;49.20;;;;;;10339706;28;20081;-61
2022/03/10 17:53:00;;;;;;;12.82;3.25;;;11.10;50.40;;;;;;10338132;28;20392;-61
2022/03/10 17:58:02;;;;;;;14.52;3.60;;;10.80;53.10;;;;;;10342983;28;20046;-61
2022/03/10 18:03:04;;;;;;;7.45;3.10;;;10.60;52.20;;;;;;10337991;28;20307;-61
2022/03/10 18:08:05;;;;;;;6.78;3.10;;;10.30;51.50;;;;;;10343095;28;20037;-61
2022/03/10 18:13:07;;;;;;;6.97;2.90;;;10.00;52.90;;;;;;10329242;28;20078;-61
2022/03/10 18:18:09;;;;;;;7.80;3.75;;;9.80;55.70;;;;;;10338282;28;20411;-61
2022/03/10 18:23:11;;;;;;;22.88;4.10;;;9.50;54.00;;;;;;10337604;28;20693;-61
2022/03/10 18:28:13;;;;;;;14.20;5.88;;;9.40;59.30;;;;;;10339320;28;20175;-61
2022/03/10 18:33:14;;;;;;;14.77;4.45;;;8.90;53.50;;;;;;10336435;28;20095;-62
2022/03/10 18:38:16;;;;;;;21.23;4.00;;;8.70;55.50;;;;;;10342155;28;20046;-62
2022/03/10 18:43:18;;;;;;;14.68;4.30;;;8.40;56.50;;;;;;10335890;28;20102;-61
2022/03/10 18:48:21;;;;;;;15.25;3.47;;;8.20;56.40;;;;;;10339265;28;20611;-62
2022/03/10 18:53:23;;;;;;;10.30;4.22;;;8.00;56.30;;;;;;10339226;28;20045;-62
2022/03/10 18:58:25;;;;;;;8.27;3.78;;;7.80;57.90;;;;;;10340759;28;20061;-62
2022/03/10 19:03:26;;;;;;;14.57;6.45;;;7.70;58.80;;;;;;10337387;28;20104;-62
2022/03/10 19:08:29;;;;;;;7.30;4.07;;;7.40;59.60;;;;;;10339376;28;20147;-62
2022/03/10 19:13:31;;;;;;;12.20;4.35;;;7.30;59.10;;;;;;10341836;28;20060;-62
2022/03/10 19:18:33;;;;;;;13.98;4.97;;;7.10;59.50;;;;;;10336374;28;20104;-61
2022/03/10 19:23:35;;;;;;;11.30;4.47;;;6.90;60.90;;;;;;10335960;28;20073;-62
2022/03/10 19:28:36;;;;;;;14.45;5.18;;;6.70;62.00;;;;;;10338733;28;20408;-62
2022/03/10 19:33:38;;;;;;;10.73;5.13;;;6.50;63.70;;;;;;10338604;28;20054;-62
2022/03/10 19:38:40;;;;;;;17.33;6.22;;;6.40;64.00;;;;;;10336542;28;20741;-61
2022/03/10 19:43:41;;;;;;;13.40;5.40;;;6.20;65.30;;;;;;10338738;28;20092;-62
2022/03/10 19:48:43;;;;;;;11.98;4.68;;;6.10;66.30;;;;;;10321654;28;20112;-61
2022/03/10 19:53:45;;;;;;;11.02;4.07;;;5.90;65.80;;;;;;10336056;28;20058;-61
2022/03/10 19:58:47;;;;;;;12.40;4.40;;;5.80;66.10;;;;;;10336984;28;20066;-61
2022/03/10 20:03:49;;;;;;;12.48;4.13;;;5.60;66.90;;;;;;10338108;28;20128;-61
2022/03/10 20:08:54;;;;;;;16.05;5.82;;;5.50;67.70;;;;;;10339847;28;20576;-62
2022/03/10 20:13:55;;;;;;;13.40;5.40;;;5.40;68.40;;;;;;10337105;28;20041;-61
2022/03/10 20:18:57;;;;;;;12.60;5.15;;;5.20;69.40;;;;;;10338620;28;20057;-61
2022/03/10 20:23:59;;;;;;;14.70;5.40;;;5.10;70.20;;;;;;10338247;28;20050;-62
2022/03/10 20:29:00;;;;;;;10.30;5.93;;;5.00;71.20;;;;;;10344025;28;20045;-61
2022/03/10 20:34:03;;;;;;;11.15;4.55;;;4.90;71.80;;;;;;10342042;28;20072;-61
2022/03/10 20:39:05;;;;;;;13.07;5.18;;;4.80;71.40;;;;;;10342206;28;20077;-61
2022/03/10 20:44:06;;;;;;;10.90;4.22;;;4.70;71.40;;;;;;10343653;28;20115;-61
2022/03/10 20:49:08;;;;;;;10.15;4.40;;;4.60;71.50;;;;;;10349576;28;20073;-61
2022/03/10 20:54:10;;;;;;;7.78;3.08;;;4.60;71.40;;;;;;10341938;28;20081;-61
2022/03/10 20:59:12;;;;;;;14.77;4.07;;;4.50;70.80;;;;;;10325269;28;20096;-61
2022/03/10 21:04:14;;;;;;;11.75;3.95;;;4.50;70.10;;;;;;10343751;28;20060;-61
2022/03/10 21:09:16;;;;;;;16.10;4.22;;;4.40;71.00;;;;;;10342922;28;20056;-61
2022/03/10 21:14:18;;;;;;;11.50;4.43;;;4.30;72.90;;;;;;10344238;28;20439;-60
2022/03/10 21:19:19;;;;;;;11.38;4.55;;;4.20;74.40;;;;;;10345230;28;20104;-61
2022/03/10 21:24:22;;;;;;;9.25;5.03;;;4.10;74.60;;;;;;10343251;28;20400;-61
2022/03/10 21:29:24;;;;;;;9.90;4.68;;;4.00;74.50;;;;;;10339423;28;20077;-61
2022/03/10 21:34:25;;;;;;;8.80;3.30;;;3.90;75.20;;;;;;10342593;28;20042;-61
2022/03/10 21:39:28;;;;;;;11.63;4.03;;;3.80;75.60;;;;;;10341867;28;20131;-61
2022/03/10 21:44:30;;;;;;;12.40;4.53;;;3.70;76.90;;;;;;10342429;28;20515;-61
2022/03/10 21:49:32;;;;;;;8.20;3.78;;;3.60;77.50;;;;;;10342284;28;20057;-61
2022/03/10 21:54:35;;;;;;;9.18;4.18;;;3.50;78.20;;;;;;10341143;28;20145;-61
2022/03/10 21:59:38;;;;;;;10.98;4.57;;;3.40;79.50;;;;;;10338751;28;20504;-61
2022/03/10 22:04:41;;;;;;;13.35;4.18;;;3.20;80.60;;;;;;10339751;28;20092;-62
2022/03/10 22:09:43;;;;;;;10.15;4.15;;;3.20;81.20;;;;;;10339801;28;20054;-61
2022/03/10 22:14:44;;;;;;;10.73;4.20;;;3.10;81.20;;;;;;10336267;28;20500;-61
2022/03/10 22:19:46;;;;;;;12.80;5.15;;;3.00;81.80;;;;;;10340815;28;20662;-61
2022/03/10 22:24:48;;;;;;;10.80;3.90;;;2.90;82.20;;;;;;10331706;28;20042;-61
2022/03/10 22:29:49;;;;;;;14.13;4.20;;;2.90;82.80;;;;;;10338160;28;20053;-61
2022/03/10 22:34:51;;;;;;;13.20;4.47;;;2.80;84.10;;;;;;10339549;28;20085;-61
2022/03/10 22:39:52;;;;;;;10.63;4.18;;;2.80;85.00;;;;;;10340749;28;20046;-61
2022/03/10 22:44:54;;;;;;;12.50;4.50;;;2.70;85.20;;;;;;10341671;28;20077;-61
2022/03/10 22:55:16;;;;;;;13.27;4.57;;;2.50;84.50;;;;;;10338446;28;20450;-61
2022/03/10 23:00:34;;;;;;;11.63;5.00;;;2.50;85.40;;;;;;10338087;28;20112;-61
2022/03/10 23:10:59;;;;;;;11.80;5.68;;;2.30;86.10;;;;;;10338302;28;20045;-61
2022/03/10 23:16:01;;;;;;;11.23;4.63;;;2.30;87.20;;;;;;10337584;28;20054;-61
2022/03/10 23:21:03;;;;;;;12.10;4.97;;;2.30;86.80;;;;;;10340183;28;20056;-61
2022/03/10 23:26:05;;;;;;;11.85;5.00;;;2.20;87.70;;;;;;10336541;28;20053;-61
2022/03/10 23:31:06;;;;;;;12.32;4.00;;;2.10;88.30;;;;;;10338223;28;20050;-61
2022/03/10 23:36:09;;;;;;;12.13;4.65;;;2.10;87.30;;;;;;10338248;28;20492;-61
2022/03/10 23:41:11;;;;;;;13.63;4.43;;;2.00;88.40;;;;;;10334719;28;20069;-61
2022/03/10 23:46:13;;;;;;;12.38;4.82;;;1.90;89.20;;;;;;10336716;28;20049;-61
2022/03/10 23:51:14;;;;;;;11.55;4.30;;;1.80;90.50;;;;;;10338104;28;20432;-61
2022/03/10 23:56:16;;;;;;;10.68;4.30;;;1.80;90.50;;;;;;10338379;28;20530;-61
